createdAt,value
2023-03-10T00:01:29.112Z,2.40
2023-03-10T00:03:58.709Z,3.00
2023-03-10T00:06:29.690Z,2.70
2023-03-10T00:08:59.459Z,3.40
2023-03-10T00:11:27.752Z,2.90
2023-03-10T00:13:55.894Z,2.70
2023-03-10T00:16:29.029Z,2.90
2023-03-10T00:18:57.603Z,2.90
2023-03-10T00:21:31.757Z,3.20
2023-03-10T00:24:00.380Z,2.90
2023-03-10T00:26:29.682Z,3.30
2023-03-10T00:31:28.022Z,2.80
2023-03-10T00:33:57.200Z,2.60
2023-03-10T00:36:29.555Z,2.30
2023-03-10T00:39:01.093Z,2.40
2023-03-10T00:41:32.441Z,1.70
2023-03-10T00:44:01.066Z,1.80
2023-03-10T00:46:30.443Z,1.80
2023-03-10T00:48:59.127Z,1.90
2023-03-10T00:51:27.407Z,2.50
2023-03-10T00:53:56.319Z,2.90
2023-03-10T00:56:26.338Z,2.00
2023-03-10T00:59:00.248Z,1.90
2023-03-10T01:01:39.501Z,2.10
2023-03-10T01:04:12.322Z,1.80
2023-03-10T01:06:41.313Z,1.70
2023-03-10T01:09:09.411Z,2.10
2023-03-10T01:11:37.535Z,2.10
2023-03-10T01:14:07.869Z,2.40
2023-03-10T01:16:35.982Z,3.30
2023-03-10T01:19:04.261Z,2.70
2023-03-10T01:21:35.618Z,2.50
2023-03-10T01:24:05.466Z,2.80
2023-03-10T01:26:33.703Z,3.40
2023-03-10T01:29:02.042Z,3.00
2023-03-10T01:31:30.320Z,3.30
2023-03-10T01:33:59.257Z,3.20
2023-03-10T01:36:28.817Z,3.40
2023-03-10T01:38:57.745Z,3.30
2023-03-10T01:41:26.432Z,3.10
2023-03-10T01:43:56.649Z,3.30
2023-03-10T01:46:43.919Z,3.20
2023-03-10T01:49:31.633Z,3.30
2023-03-10T01:52:35.135Z,2.90
2023-03-10T01:55:11.384Z,3.60
2023-03-10T01:57:44.431Z,2.80
2023-03-10T02:00:14.905Z,2.80
2023-03-10T02:03:11.726Z,3.50
2023-03-10T02:05:47.992Z,2.40
2023-03-10T02:08:21.389Z,2.10
2023-03-10T02:11:01.549Z,1.90
2023-03-10T02:13:42.621Z,2.10
2023-03-10T02:16:11.374Z,2.10
2023-03-10T02:18:48.821Z,2.20
2023-03-10T02:21:34.682Z,2.00
2023-03-10T02:24:38.303Z,2.30
2023-03-10T02:27:24.944Z,2.50
2023-03-10T02:30:14.818Z,2.40
2023-03-10T02:32:48.613Z,2.20
2023-03-10T02:35:17.363Z,2.40
2023-03-10T02:37:52.833Z,2.40
2023-03-10T02:40:44.059Z,2.70
2023-03-10T02:43:28.858Z,2.60
2023-03-10T02:46:07.522Z,2.80
2023-03-10T02:48:39.802Z,2.90
2023-03-10T02:51:34.214Z,2.90
2023-03-10T02:54:05.048Z,2.70
2023-03-10T02:56:34.539Z,2.50
2023-03-10T02:59:03.674Z,2.10
2023-03-10T03:01:33.457Z,2.60
2023-03-10T03:04:02.111Z,2.30
2023-03-10T03:06:30.813Z,3.40
2023-03-10T03:09:00.830Z,3.60
2023-03-10T03:11:30.186Z,4.00
2023-03-10T03:13:58.294Z,2.90
2023-03-10T03:16:27.636Z,2.80
2023-03-10T03:18:59.162Z,3.10
2023-03-10T03:21:27.496Z,2.50
2023-03-10T03:23:55.817Z,2.50
2023-03-10T03:26:29.462Z,2.50
2023-03-10T03:29:05.894Z,2.20
2023-03-10T03:31:35.513Z,2.10
2023-03-10T03:34:08.856Z,2.10
2023-03-10T03:36:38.194Z,1.80
2023-03-10T03:39:07.388Z,1.70
2023-03-10T03:41:35.826Z,1.50
2023-03-10T03:44:04.759Z,1.50
2023-03-10T03:49:02.134Z,1.70
2023-03-10T03:51:30.738Z,1.60
2023-03-10T03:53:59.607Z,1.40
2023-03-10T03:56:28.195Z,1.40
2023-03-10T03:58:56.203Z,1.50
2023-03-10T04:01:24.340Z,2.10
2023-03-10T04:03:54.980Z,1.60
2023-03-10T04:06:23.934Z,2.10
2023-03-10T04:08:52.444Z,1.80
2023-03-10T04:11:21.134Z,1.80
2023-03-10T04:13:49.946Z,1.90
2023-03-10T04:16:18.118Z,1.80
2023-03-10T04:18:46.885Z,1.40
2023-03-10T04:21:17.650Z,1.80
2023-03-10T04:23:46.306Z,2.10
2023-03-10T04:26:16.356Z,1.80
2023-03-10T04:28:44.559Z,2.30
2023-03-10T04:31:16.545Z,1.90
2023-03-10T04:33:45.666Z,2.70
2023-03-10T04:36:14.382Z,2.90
2023-03-10T04:38:43.647Z,2.30
2023-03-10T04:41:12.550Z,2.50
2023-03-10T04:43:44.071Z,2.60
2023-03-10T04:46:13.776Z,3.20
2023-03-10T04:48:42.915Z,2.60
2023-03-10T04:51:12.981Z,3.30
2023-03-10T04:53:46.878Z,3.90
2023-03-10T04:56:15.922Z,3.50
2023-03-10T04:58:44.106Z,3.40
2023-03-10T05:01:15.179Z,3.90
2023-03-10T05:03:47.415Z,4.10
2023-03-10T05:06:18.514Z,3.60
2023-03-10T05:08:51.566Z,3.80
2023-03-10T05:11:21.928Z,3.70
2023-03-10T05:13:51.167Z,3.70
2023-03-10T05:16:22.084Z,3.80
2023-03-10T05:18:51.002Z,3.10
2023-03-10T05:21:22.363Z,2.50
2023-03-10T05:23:51.233Z,3.60
2023-03-10T05:26:19.814Z,3.10
2023-03-10T05:28:48.551Z,3.00
2023-03-10T05:31:26.260Z,2.90
2023-03-10T05:33:58.164Z,2.90
2023-03-10T05:36:26.602Z,2.90
2023-03-10T05:38:55.362Z,3.30
2023-03-10T05:41:23.505Z,4.20
2023-03-10T05:43:54.243Z,4.10
2023-03-10T05:46:22.858Z,3.80
2023-03-10T05:48:54.995Z,4.10
2023-03-10T05:51:23.416Z,4.40
2023-03-10T05:53:51.449Z,4.00
2023-03-10T05:56:23.309Z,3.90
2023-03-10T05:58:54.354Z,3.50
2023-03-10T06:01:26.067Z,3.00
2023-03-10T06:03:54.116Z,3.30
2023-03-10T06:06:22.473Z,2.90
2023-03-10T06:09:02.707Z,3.50
2023-03-10T06:11:31.397Z,3.80
2023-03-10T06:13:59.679Z,4.10
2023-03-10T06:16:28.214Z,3.80
2023-03-10T06:18:57.050Z,4.80
2023-03-10T06:21:25.529Z,4.60
2023-03-10T06:23:53.483Z,4.20
2023-03-10T06:26:22.896Z,4.60
2023-03-10T06:28:51.283Z,5.00
2023-03-10T06:31:23.189Z,7.80
2023-03-10T06:33:52.184Z,9.00
2023-03-10T06:36:23.358Z,6.00
2023-03-10T06:38:52.251Z,5.70
2023-03-10T06:41:21.788Z,5.80
2023-03-10T06:43:49.861Z,4.90
2023-03-10T06:46:18.210Z,5.30
2023-03-10T06:48:46.271Z,4.70
2023-03-10T06:51:18.392Z,4.40
2023-03-10T06:53:49.208Z,5.30
2023-03-10T06:56:20.253Z,5.90
2023-03-10T06:58:49.075Z,5.30
2023-03-10T07:01:25.057Z,6.10
2023-03-10T07:03:54.414Z,5.40
2023-03-10T07:06:23.499Z,6.30
2023-03-10T07:08:51.973Z,6.50
2023-03-10T07:11:20.579Z,6.60
2023-03-10T07:13:48.645Z,6.50
2023-03-10T07:16:17.328Z,7.10
2023-03-10T07:18:45.834Z,7.50
2023-03-10T07:21:20.053Z,6.60
2023-03-10T07:23:48.362Z,5.80
2023-03-10T07:26:18.914Z,5.50
2023-03-10T07:28:47.692Z,4.80
2023-03-10T07:31:17.026Z,5.10
2023-03-10T07:33:45.639Z,5.50
2023-03-10T07:36:17.955Z,5.50
2023-03-10T07:38:46.605Z,5.40
2023-03-10T07:41:18.217Z,5.70
2023-03-10T07:43:46.429Z,5.50
2023-03-10T07:46:15.985Z,4.90
2023-03-10T07:48:44.645Z,4.60
2023-03-10T07:51:12.966Z,5.10
2023-03-10T07:53:41.172Z,5.30
2023-03-10T07:56:11.638Z,5.10
2023-03-10T07:58:58.842Z,6.20
2023-03-10T08:01:27.195Z,7.00
2023-03-10T08:03:57.926Z,8.60
2023-03-10T08:06:28.767Z,8.80
2023-03-10T08:08:58.170Z,9.40
2023-03-10T08:11:27.265Z,8.80
2023-03-10T08:16:24.362Z,8.50
2023-03-10T08:18:54.825Z,8.70
2023-03-10T08:21:23.404Z,8.50
2023-03-10T08:23:51.520Z,9.10
2023-03-10T08:26:19.999Z,8.10
2023-03-10T08:28:49.105Z,9.30
2023-03-10T08:31:20.600Z,7.80
2023-03-10T08:33:49.477Z,8.10
2023-03-10T08:36:24.055Z,8.20
2023-03-10T08:38:53.939Z,7.90
2023-03-10T08:41:25.942Z,7.70
2023-03-10T08:43:56.544Z,7.90
2023-03-10T08:46:27.473Z,8.10
2023-03-10T08:48:56.402Z,7.40
2023-03-10T08:51:25.956Z,7.00
2023-03-10T08:53:54.765Z,6.60
2023-03-10T08:56:24.714Z,6.90
2023-03-10T08:58:56.884Z,6.20
2023-03-10T09:01:30.158Z,5.90
2023-03-10T09:04:00.417Z,6.60
2023-03-10T09:06:29.412Z,5.70
2023-03-10T09:08:57.568Z,6.20
2023-03-10T09:11:28.871Z,5.70
2023-03-10T09:13:59.225Z,5.50
2023-03-10T09:16:28.922Z,3.80
2023-03-10T09:18:58.458Z,3.70
2023-03-10T09:21:30.272Z,2.80
2023-03-10T09:24:01.157Z,2.60
2023-03-10T09:26:29.652Z,3.30
2023-03-10T09:28:57.734Z,2.90
2023-03-10T09:31:35.760Z,2.70
2023-03-10T09:34:05.025Z,2.90
2023-03-10T09:36:33.629Z,3.00
2023-03-10T09:39:02.941Z,3.20
2023-03-10T09:41:58.219Z,2.80
2023-03-10T09:44:46.664Z,2.70
2023-03-10T09:50:35.144Z,3.80
2023-03-10T09:53:07.609Z,3.60
2023-03-10T09:55:47.804Z,3.70
2023-03-10T09:58:39.734Z,3.70
2023-03-10T10:01:18.318Z,4.10
2023-03-10T10:03:53.357Z,3.70
2023-03-10T10:06:44.887Z,2.80
2023-03-10T10:09:58.308Z,3.60
2023-03-10T10:12:27.304Z,3.50
2023-03-10T10:17:41.567Z,4.30
2023-03-10T10:20:39.254Z,4.30
2023-03-10T10:23:25.348Z,4.60
2023-03-10T10:25:54.847Z,4.80
2023-03-10T10:28:33.761Z,3.80
2023-03-10T10:31:22.688Z,3.80
2023-03-10T10:33:58.487Z,4.00
2023-03-10T10:36:31.695Z,3.60
2023-03-10T10:39:00.302Z,3.80
2023-03-10T10:41:33.032Z,3.90
2023-03-10T10:44:14.624Z,4.50
2023-03-10T10:46:57.663Z,4.00
2023-03-10T10:49:31.761Z,3.70
2023-03-10T10:52:18.172Z,3.20
2023-03-10T10:54:56.495Z,3.30
2023-03-10T10:57:33.479Z,3.10
2023-03-10T11:00:18.641Z,3.10
2023-03-10T11:02:46.745Z,2.90
2023-03-10T11:05:20.452Z,2.50
2023-03-10T11:07:50.508Z,2.60
2023-03-10T11:10:23.379Z,2.70
2023-03-10T11:13:06.543Z,2.60
2023-03-10T11:16:13.253Z,2.60
2023-03-10T11:19:02.076Z,2.60
2023-03-10T11:21:35.440Z,2.30
2023-03-10T11:24:13.576Z,2.70
2023-03-10T11:26:59.680Z,2.40
2023-03-10T11:29:30.637Z,2.80
2023-03-10T11:31:58.633Z,2.60
2023-03-10T11:34:32.859Z,1.90
2023-03-10T11:37:30.068Z,2.30
2023-03-10T11:39:58.226Z,1.90
2023-03-10T11:42:49.345Z,2.40
2023-03-10T11:45:27.764Z,2.80
2023-03-10T11:48:08.119Z,1.70
2023-03-10T11:50:53.054Z,1.80
2023-03-10T11:53:45.634Z,2.10
2023-03-10T11:56:15.704Z,1.60
2023-03-10T11:58:47.561Z,1.90
2023-03-10T12:01:22.545Z,1.90
2023-03-10T12:04:08.637Z,2.30
2023-03-10T12:06:50.326Z,1.60
2023-03-10T12:09:44.026Z,1.80
2023-03-10T12:12:15.759Z,1.90
2023-03-10T12:14:45.470Z,1.80
2023-03-10T12:17:16.751Z,2.70
2023-03-10T12:20:16.236Z,2.20
2023-03-10T12:22:47.236Z,1.60
2023-03-10T12:25:30.909Z,1.60
2023-03-10T12:28:17.193Z,1.80
2023-03-10T12:30:58.899Z,1.30
2023-03-10T12:33:42.579Z,1.60
2023-03-10T12:36:11.650Z,1.70
2023-03-10T12:38:46.554Z,1.80
2023-03-10T12:41:44.979Z,1.90
2023-03-10T12:44:22.393Z,1.60
2023-03-10T12:47:08.710Z,1.70
2023-03-10T12:50:17.563Z,2.00
2023-03-10T12:55:29.678Z,1.80
2023-03-10T13:00:46.852Z,2.20
2023-03-10T13:03:35.944Z,1.80
2023-03-10T13:06:11.162Z,1.90
2023-03-10T13:08:53.938Z,1.90
2023-03-10T13:11:34.654Z,2.10
2023-03-10T13:14:02.659Z,2.20
2023-03-10T13:16:32.565Z,2.00
2023-03-10T13:19:01.589Z,2.00
2023-03-10T13:21:38.680Z,2.00
2023-03-10T13:24:33.879Z,2.00
2023-03-10T13:27:15.068Z,1.90
2023-03-10T13:29:56.860Z,2.00
2023-03-10T13:32:26.591Z,1.90
2023-03-10T13:34:55.906Z,1.90
2023-03-10T13:37:25.065Z,1.90
2023-03-10T13:42:40.885Z,2.10
2023-03-10T13:45:22.753Z,2.00
2023-03-10T13:47:52.471Z,2.20
2023-03-10T13:50:21.198Z,2.00
2023-03-10T13:52:59.716Z,2.20
2023-03-10T13:55:28.747Z,2.00
2023-03-10T13:57:58.213Z,2.10
2023-03-10T14:00:26.901Z,2.20
2023-03-10T14:02:55.960Z,2.00
2023-03-10T14:05:51.167Z,2.30
2023-03-10T14:08:27.912Z,2.30
2023-03-10T14:11:32.160Z,2.00
2023-03-10T14:14:01.673Z,2.40
2023-03-10T14:16:50.048Z,2.40
2023-03-10T14:19:40.204Z,2.10
2023-03-10T14:22:43.356Z,2.20
2023-03-10T14:25:17.157Z,2.40
2023-03-10T14:28:10.270Z,2.50
2023-03-10T14:30:40.424Z,2.20
2023-03-10T14:33:14.115Z,2.30
2023-03-10T14:35:43.361Z,2.40
2023-03-10T14:38:12.280Z,2.30
2023-03-10T14:40:51.824Z,2.20
2023-03-10T14:43:25.011Z,2.20
2023-03-10T14:45:56.466Z,2.10
2023-03-10T14:48:28.076Z,2.50
2023-03-10T14:50:57.020Z,2.10
2023-03-10T14:53:26.732Z,2.80
2023-03-10T14:55:57.148Z,2.40
2023-03-10T14:58:33.390Z,2.50
2023-03-10T15:01:01.703Z,3.20
2023-03-10T15:03:29.872Z,2.80
2023-03-10T15:05:57.918Z,2.60
2023-03-10T15:08:28.108Z,2.70
2023-03-10T15:10:58.287Z,3.00
2023-03-10T15:13:26.700Z,2.70
2023-03-10T15:15:55.019Z,3.00
2023-03-10T15:18:24.701Z,3.00
2023-03-10T15:20:58.869Z,2.50
2023-03-10T15:23:28.379Z,2.30
2023-03-10T15:25:57.783Z,2.80
2023-03-10T15:28:25.859Z,2.60
2023-03-10T15:30:54.924Z,2.50
2023-03-10T15:35:51.185Z,2.70
2023-03-10T15:38:19.258Z,2.90
2023-03-10T15:40:47.538Z,2.60
2023-03-10T15:43:15.711Z,2.80
2023-03-10T15:45:50.336Z,2.40
2023-03-10T15:48:18.395Z,2.40
2023-03-10T15:50:49.356Z,2.50
2023-03-10T15:53:17.418Z,2.60
2023-03-10T15:55:45.797Z,3.00
2023-03-10T15:58:14.022Z,2.60
2023-03-10T16:00:44.079Z,2.90
2023-03-10T16:03:12.566Z,2.90
2023-03-10T16:05:48.171Z,2.90
2023-03-10T16:08:18.999Z,3.20
2023-03-10T16:10:54.815Z,3.60
2023-03-10T16:13:23.895Z,3.60
2023-03-10T16:20:56.741Z,2.80
2023-03-10T16:23:26.452Z,3.40
2023-03-10T16:26:17.649Z,3.50
2023-03-10T16:28:52.690Z,3.20
2023-03-10T16:31:23.238Z,3.30
2023-03-10T16:33:52.214Z,3.40
2023-03-10T16:36:23.459Z,3.30
2023-03-10T16:38:53.688Z,3.20
2023-03-10T16:41:23.320Z,3.20
2023-03-10T16:43:52.283Z,2.90
2023-03-10T16:46:25.839Z,3.10
2023-03-10T16:48:55.180Z,3.70
2023-03-10T16:54:12.322Z,3.30
2023-03-10T16:56:43.360Z,3.70
2023-03-10T16:59:18.389Z,4.10
2023-03-10T17:01:47.723Z,4.10
2023-03-10T17:04:15.868Z,3.80
2023-03-10T17:06:44.563Z,3.70
2023-03-10T17:09:14.363Z,4.10
2023-03-10T17:11:47.580Z,4.20
2023-03-10T17:14:17.195Z,3.40
2023-03-10T17:16:46.691Z,4.00
2023-03-10T17:19:18.169Z,4.00
2023-03-10T17:21:49.554Z,3.70
2023-03-10T17:24:19.537Z,4.50
2023-03-10T17:26:48.180Z,3.90
2023-03-10T17:29:16.431Z,5.00
2023-03-10T17:31:48.924Z,4.60
2023-03-10T17:34:17.893Z,5.00
2023-03-10T17:36:47.128Z,4.90
2023-03-10T17:41:46.242Z,4.70
2023-03-10T17:44:15.382Z,5.30
2023-03-10T17:46:44.013Z,5.70
2023-03-10T17:49:13.968Z,6.10
2023-03-10T17:51:44.540Z,6.20
2023-03-10T17:54:15.708Z,6.30
2023-03-10T17:56:43.897Z,6.60
2023-03-10T17:59:14.346Z,6.10
2023-03-10T18:01:44.233Z,6.80
2023-03-10T18:04:12.991Z,6.20
2023-03-10T18:06:41.305Z,5.50
2023-03-10T18:09:13.676Z,5.40
2023-03-10T18:11:41.841Z,3.80
2023-03-10T18:14:09.924Z,4.20
2023-03-10T18:16:40.089Z,4.30
2023-03-10T18:19:10.704Z,4.60
2023-03-10T18:21:39.731Z,4.80
2023-03-10T18:26:38.781Z,3.20
2023-03-10T18:29:06.744Z,4.70
2023-03-10T18:31:35.134Z,4.80
2023-03-10T18:34:04.846Z,4.10
2023-03-10T18:36:33.458Z,3.90
2023-03-10T18:39:03.857Z,4.20
2023-03-10T18:41:32.866Z,3.70
2023-03-10T18:44:01.424Z,3.70
2023-03-10T18:46:36.950Z,3.90
2023-03-10T18:49:04.924Z,3.50
2023-03-10T18:51:33.118Z,3.30
2023-03-10T18:54:01.287Z,3.30
2023-03-10T18:56:29.535Z,3.70
2023-03-10T18:58:57.764Z,3.40
2023-03-10T19:01:27.018Z,4.00
2023-03-10T19:03:55.419Z,3.50
2023-03-10T19:06:23.591Z,3.10
2023-03-10T19:08:53.449Z,3.40
2023-03-10T19:11:24.649Z,3.30
2023-03-10T19:13:53.746Z,3.00
2023-03-10T19:16:22.055Z,2.60
2023-03-10T19:18:50.382Z,3.10
2023-03-10T19:21:18.490Z,3.20
2023-03-10T19:23:46.890Z,3.40
2023-03-10T19:26:15.546Z,3.00
2023-03-10T19:28:43.653Z,2.70
2023-03-10T19:31:14.277Z,3.10
2023-03-10T19:33:42.938Z,3.30
2023-03-10T19:36:13.255Z,3.10
2023-03-10T19:38:43.327Z,3.00
2023-03-10T19:41:14.394Z,2.90
2023-03-10T19:43:43.841Z,2.70
2023-03-10T19:46:16.119Z,2.80
2023-03-10T19:48:44.998Z,2.40
2023-03-10T19:51:25.246Z,2.40
2023-03-10T19:53:55.359Z,3.00
2023-03-10T19:56:26.639Z,2.30
2023-03-10T19:58:55.407Z,2.70
2023-03-10T20:01:26.203Z,2.40
2023-03-10T20:03:57.673Z,2.60
2023-03-10T20:06:26.277Z,2.50
2023-03-10T20:08:54.801Z,2.40
2023-03-10T20:11:23.440Z,2.30
2023-03-10T20:13:53.461Z,2.40
2023-03-10T20:16:23.975Z,2.30
2023-03-10T20:18:52.490Z,2.20
2023-03-10T20:21:21.000Z,2.40
2023-03-10T20:23:49.120Z,2.30
2023-03-10T20:26:18.487Z,2.00
2023-03-10T20:28:49.005Z,2.30
2023-03-10T20:31:23.740Z,2.20
2023-03-10T20:33:52.216Z,2.40
2023-03-10T20:36:20.546Z,2.50
2023-03-10T20:38:48.692Z,2.20
2023-03-10T20:41:18.338Z,2.10
2023-03-10T20:43:47.061Z,2.40
2023-03-10T20:46:19.284Z,2.40
2023-03-10T20:48:51.034Z,2.20
2023-03-10T20:51:19.399Z,2.20
2023-03-10T20:53:47.954Z,2.70
2023-03-10T20:56:16.722Z,2.10
2023-03-10T20:58:45.062Z,2.20
2023-03-10T21:01:19.101Z,2.70
2023-03-10T21:03:47.504Z,3.30
2023-03-10T21:06:15.684Z,2.70
2023-03-10T21:08:44.007Z,2.80
2023-03-10T21:11:12.078Z,3.00
2023-03-10T21:13:41.189Z,3.10
2023-03-10T21:16:09.992Z,3.60
2023-03-10T21:18:38.291Z,3.30
2023-03-10T21:21:08.220Z,2.80
2023-03-10T21:23:42.481Z,2.20
2023-03-10T21:26:20.188Z,2.60
2023-03-10T21:28:49.275Z,2.10
2023-03-10T21:31:18.389Z,2.80
2023-03-10T21:33:46.710Z,2.20
2023-03-10T21:36:19.942Z,2.60
2023-03-10T21:38:50.005Z,2.10
2023-03-10T21:41:24.297Z,2.20
2023-03-10T21:43:58.424Z,2.00
2023-03-10T21:46:26.733Z,2.10
2023-03-10T21:48:55.054Z,2.40
2023-03-10T21:51:25.123Z,2.10
2023-03-10T21:53:56.513Z,2.00
2023-03-10T21:56:28.382Z,2.50
2023-03-10T21:58:57.689Z,2.20
2023-03-10T22:01:27.654Z,7.80
2023-03-10T22:03:56.178Z,3.50
2023-03-10T22:06:24.614Z,2.90
2023-03-10T22:08:52.685Z,2.20
2023-03-10T22:11:20.913Z,2.00
2023-03-10T22:13:48.999Z,2.20
2023-03-10T22:16:18.087Z,2.20
2023-03-10T22:18:46.669Z,2.20
2023-03-10T22:21:15.736Z,2.70
2023-03-10T22:23:44.241Z,2.50
2023-03-10T22:26:15.486Z,2.40
2023-03-10T22:28:43.763Z,2.40
2023-03-10T22:31:12.014Z,2.50
2023-03-10T22:33:40.206Z,2.40
2023-03-10T22:36:11.317Z,2.50
2023-03-10T22:38:40.049Z,2.30
2023-03-10T22:41:12.252Z,2.20
2023-03-10T22:43:41.209Z,2.20
2023-03-10T22:46:12.282Z,2.30
2023-03-10T22:48:41.539Z,2.50
2023-03-10T22:51:14.106Z,2.40
2023-03-10T22:53:42.187Z,1.90
2023-03-10T22:56:10.264Z,2.40
2023-03-10T22:58:38.534Z,1.80
2023-03-10T23:01:07.224Z,2.30
2023-03-10T23:03:35.549Z,2.00
2023-03-10T23:06:05.962Z,2.10
2023-03-10T23:08:37.567Z,2.20
2023-03-10T23:11:13.823Z,2.00
2023-03-10T23:13:42.538Z,2.20
2023-03-10T23:16:10.653Z,2.20
2023-03-10T23:18:38.885Z,2.30
2023-03-10T23:21:07.280Z,2.40
2023-03-10T23:23:35.543Z,2.60
2023-03-10T23:26:03.835Z,2.50
2023-03-10T23:28:31.838Z,2.50
2023-03-10T23:31:00.497Z,3.30
2023-03-10T23:33:29.214Z,7.40
2023-03-10T23:35:57.283Z,7.90
2023-03-10T23:38:26.297Z,7.40
2023-03-10T23:40:55.663Z,7.40
2023-03-10T23:43:24.128Z,7.90
2023-03-10T23:45:52.512Z,7.40
2023-03-10T23:48:23.639Z,7.20
2023-03-10T23:50:51.641Z,7.70
2023-03-10T23:53:23.156Z,7.30
2023-03-10T23:55:51.262Z,8.00
2023-03-10T23:58:19.830Z,7.30
